Time;durP1;ratioP1;P1;durP2;ratioP2;P2;SDS_P1;SDS_P2;PMS_P1;PMS_P2;Temp;Humidity;BMP_temperature;BMP_pressure;BME280_temperature;BME280_humidity;BME280_pressure;Samples;Min_cycle;Max_cycle;Signal;HPM_P1;HPM_P2
2023/08/30 00:02:23;;;;;;;0.30;0.30;;;;;;;16.03;100.00;99496.66;5035938;28;20021;-64
2023/08/30 00:04:49;;;;;;;0.30;0.30;;;;;;;15.98;100.00;99488.03;5035218;28;20035;-64
2023/08/30 00:07:14;;;;;;;0.30;0.30;;;;;;;16.00;100.00;99488.78;5030820;28;20456;-64
2023/08/30 00:09:40;;;;;;;0.30;0.30;;;;;;;16.01;100.00;99478.00;5030743;28;20025;-64
2023/08/30 00:12:05;;;;;;;0.30;0.30;;;;;;;16.04;100.00;99487.66;5044723;28;20032;-65
2023/08/30 00:14:32;;;;;;;0.30;0.30;;;;;;;16.09;100.00;99481.03;5049279;28;20032;-64
2023/08/30 00:16:57;;;;;;;0.30;0.30;;;;;;;16.08;100.00;99473.94;5039952;28;20021;-64
2023/08/30 00:19:23;;;;;;;0.30;0.30;;;;;;;16.10;100.00;99471.16;5050242;28;20020;-63
2023/08/30 00:21:48;;;;;;;0.30;0.30;;;;;;;16.14;100.00;99478.94;5050448;28;20475;-64
2023/08/30 00:24:14;;;;;;;0.30;0.30;;;;;;;16.13;100.00;99477.19;5050217;28;20025;-64
2023/08/30 00:26:40;;;;;;;0.30;0.30;;;;;;;16.16;100.00;99481.50;5045144;28;20036;-64
2023/08/30 00:29:05;;;;;;;0.28;0.28;;;;;;;16.11;100.00;99479.09;5044242;28;20027;-65
2023/08/30 00:31:30;;;;;;;0.20;0.20;;;;;;;16.18;100.00;99480.44;5031823;28;20025;-63
2023/08/30 00:33:56;;;;;;;0.30;0.30;;;;;;;16.19;100.00;99484.00;5049005;28;20029;-64
2023/08/30 00:36:22;;;;;;;0.30;0.30;;;;;;;16.19;100.00;99484.00;5045310;28;20464;-64
2023/08/30 00:38:47;;;;;;;0.30;0.30;;;;;;;16.22;100.00;99476.63;5048782;28;20066;-64
2023/08/30 00:41:12;;;;;;;0.30;0.30;;;;;;;16.26;100.00;99479.97;5048754;28;20023;-64
2023/08/30 00:43:39;;;;;;;0.30;0.30;;;;;;;16.23;100.00;99472.09;5048444;28;20033;-64
2023/08/30 00:46:04;;;;;;;0.30;0.30;;;;;;;16.27;100.00;99474.50;5033506;28;20441;-64
2023/08/30 00:48:30;;;;;;;0.30;0.30;;;;;;;16.33;100.00;99470.53;5028819;28;20091;-63
2023/08/30 00:50:55;;;;;;;0.30;0.30;;;;;;;16.33;100.00;99471.41;5042028;28;20692;-64
2023/08/30 00:53:21;;;;;;;0.30;0.30;;;;;;;16.35;100.00;99476.69;5049324;28;20028;-64
2023/08/30 00:55:46;;;;;;;0.30;0.30;;;;;;;16.36;100.00;99473.06;5048535;28;20485;-65
2023/08/30 00:58:12;;;;;;;0.30;0.30;;;;;;;16.35;100.00;99474.88;5033323;28;20013;-64
2023/08/30 01:00:38;;;;;;;0.30;0.30;;;;;;;16.35;100.00;99471.31;5047171;28;20024;-64
2023/08/30 01:03:07;;;;;;;0.30;0.30;;;;;;;16.33;100.00;99478.59;5028891;28;20040;-64
2023/08/30 01:05:32;;;;;;;0.30;0.30;;;;;;;16.31;100.00;99475.16;5029164;28;20033;-63
2023/08/30 01:07:58;;;;;;;0.30;0.30;;;;;;;16.32;100.00;99480.44;5028467;28;20043;-64
2023/08/30 01:10:38;;;;;;;0.30;0.30;;;;;;;16.25;100.00;99465.69;5047150;28;20033;-65
2023/08/30 01:13:09;;;;;;;0.30;0.30;;;;;;;16.27;100.00;99479.00;5043438;28;20037;-65
2023/08/30 01:15:38;;;;;;;0.30;0.30;;;;;;;16.25;100.00;99475.53;5030950;28;20068;-65
2023/08/30 01:18:05;;;;;;;0.30;0.30;;;;;;;16.25;100.00;99471.03;5048295;28;20021;-65
2023/08/30 01:20:35;;;;;;;0.30;0.30;;;;;;;16.30;100.00;99466.25;5038664;28;20466;-65
2023/08/30 01:23:09;;;;;;;0.20;0.20;;;;;;;16.29;100.00;99466.34;5047882;28;20112;-65
2023/08/30 01:26:08;;;;;;;0.30;0.30;;;;;;;16.29;100.00;99472.56;5038890;28;20068;-65
2023/08/30 01:28:36;;;;;;;0.30;0.30;;;;;;;16.25;100.00;99467.50;5036273;28;20037;-65
2023/08/30 01:31:03;;;;;;;0.30;0.30;;;;;;;16.20;100.00;99462.44;5037515;28;20074;-65
2023/08/30 01:33:29;;;;;;;0.30;0.30;;;;;;;16.26;100.00;99461.19;5030680;28;20483;-65
2023/08/30 01:35:59;;;;;;;0.30;0.30;;;;;;;16.29;100.00;99466.34;5040454;28;20602;-65
2023/08/30 01:38:27;;;;;;;0.30;0.30;;;;;;;16.32;100.00;99466.16;5046987;28;20377;-65
2023/08/30 01:40:54;;;;;;;0.20;0.20;;;;;;;16.33;100.00;99462.50;5048540;28;20068;-65
2023/08/30 01:43:21;;;;;;;0.20;0.20;;;;;;;16.33;100.00;99458.00;5047705;28;20448;-66
2023/08/30 01:45:47;;;;;;;0.20;0.20;;;;;;;16.32;100.00;99460.78;5042345;28;20036;-65
2023/08/30 01:48:18;;;;;;;0.20;0.20;;;;;;;16.34;100.00;99454.34;5028369;28;20478;-66
2023/08/30 01:50:45;;;;;;;0.30;0.30;;;;;;;16.35;100.00;99452.53;5036552;28;20036;-65
2023/08/30 01:53:12;;;;;;;0.30;0.30;;;;;;;16.38;100.00;99452.31;5047391;28;20464;-64
2023/08/30 01:55:39;;;;;;;0.25;0.25;;;;;;;16.40;100.00;99453.97;5056730;28;20040;-64
2023/08/30 01:58:05;;;;;;;0.30;0.30;;;;;;;16.44;100.00;99460.00;5048971;28;20012;-64
2023/08/30 02:00:31;;;;;;;0.30;0.30;;;;;;;16.44;100.00;99460.84;5042475;28;20036;-65
2023/08/30 02:02:57;;;;;;;0.30;0.30;;;;;;;16.44;100.00;99452.78;5037158;28;20028;-64
2023/08/30 02:05:22;;;;;;;0.20;0.20;;;;;;;16.44;100.00;99458.16;5044353;28;20029;-64
2023/08/30 02:08:12;;;;;;;0.30;0.30;;;;;;;16.43;100.00;99453.75;5047489;28;20060;-63
2023/08/30 02:10:41;;;;;;;0.20;0.20;;;;;;;16.45;100.00;99461.69;5048292;28;20037;-64
2023/08/30 02:13:07;;;;;;;0.30;0.30;;;;;;;16.46;100.00;99466.13;5047037;28;20033;-64
2023/08/30 02:15:36;;;;;;;0.30;0.30;;;;;;;16.47;100.00;99460.69;5032239;28;20068;-64
2023/08/30 02:18:04;;;;;;;0.30;0.30;;;;;;;16.48;100.00;99456.16;5028868;28;20029;-63
2023/08/30 02:20:31;;;;;;;0.20;0.20;;;;;;;16.49;100.00;99455.22;5043745;28;20037;-64
2023/08/30 02:22:59;;;;;;;0.30;0.30;;;;;;;16.49;100.00;99457.91;5028692;28;20048;-63
2023/08/30 02:25:25;;;;;;;0.30;0.30;;;;;;;16.53;100.00;99443.28;5027545;28;20033;-64
2023/08/30 02:27:50;;;;;;;0.30;0.30;;;;;;;16.52;100.00;99441.59;5034692;28;20039;-63
2023/08/30 02:30:16;;;;;;;0.40;0.40;;;;;;;16.49;100.00;99441.78;5047921;28;20107;-64
2023/08/30 02:32:41;;;;;;;0.30;0.30;;;;;;;16.42;100.00;99432.38;5039028;28;20116;-63
2023/08/30 02:35:07;;;;;;;0.30;0.30;;;;;;;16.44;100.00;99446.56;5042561;28;20393;-63
2023/08/30 02:37:32;;;;;;;0.30;0.30;;;;;;;16.44;100.00;99455.47;5044049;28;20037;-63
2023/08/30 02:39:57;;;;;;;0.40;0.40;;;;;;;16.48;100.00;99445.41;5047382;28;20047;-63
2023/08/30 02:42:23;;;;;;;0.20;0.20;;;;;;;16.49;100.00;99449.84;5051924;28;20040;-63
2023/08/30 02:44:48;;;;;;;0.30;0.30;;;;;;;16.48;100.00;99456.16;5039963;28;20464;-64
2023/08/30 02:47:14;;;;;;;0.30;0.30;;;;;;;16.46;100.00;99450.03;5047873;28;20781;-64
2023/08/30 02:49:39;;;;;;;0.30;0.30;;;;;;;16.46;100.00;99453.56;5052098;28;20020;-63
2023/08/30 02:52:05;;;;;;;0.30;0.30;;;;;;;16.46;100.00;99450.03;5032947;28;20037;-63
2023/08/30 02:54:30;;;;;;;0.30;0.30;;;;;;;16.40;100.00;99447.72;5035931;28;20084;-64
2023/08/30 02:56:55;;;;;;;0.30;0.30;;;;;;;16.42;100.00;99457.41;5051680;28;20108;-63
2023/08/30 02:59:21;;;;;;;0.30;0.30;;;;;;;16.42;100.00;99453.84;5051736;28;20021;-64
2023/08/30 03:01:46;;;;;;;0.30;0.30;;;;;;;16.40;100.00;99453.97;5043946;28;20120;-63
2023/08/30 03:04:12;;;;;;;0.30;0.30;;;;;;;16.34;100.00;99450.81;5044717;28;20044;-64
2023/08/30 03:06:37;;;;;;;0.30;0.30;;;;;;;16.21;100.00;99437.31;5037952;28;20525;-63
2023/08/30 03:09:04;;;;;;;0.40;0.40;;;;;;;16.33;100.00;99443.69;5051288;28;20416;-63
2023/08/30 03:11:29;;;;;;;0.30;0.30;;;;;;;16.26;100.00;99437.03;5031711;28;20032;-64
2023/08/30 03:13:55;;;;;;;0.30;0.30;;;;;;;16.26;100.00;99450.44;5041735;28;20405;-63
2023/08/30 03:16:20;;;;;;;0.30;0.30;;;;;;;16.32;100.00;99456.28;5031640;28;20464;-63
2023/08/30 03:18:46;;;;;;;0.30;0.30;;;;;;;16.35;100.00;99448.03;5047309;28;20013;-64
2023/08/30 03:21:12;;;;;;;0.30;0.30;;;;;;;16.34;100.00;99457.00;5031286;28;20043;-64
2023/08/30 03:23:38;;;;;;;0.30;0.30;;;;;;;16.38;100.00;99452.31;5033358;28;20534;-63
2023/08/30 03:26:13;;;;;;;0.30;0.30;;;;;;;16.30;100.00;99449.28;5031006;28;20041;-64
2023/08/30 03:28:39;;;;;;;0.30;0.30;;;;;;;16.28;100.00;99443.13;5035450;28;20032;-64
2023/08/30 03:31:19;;;;;;;0.30;0.30;;;;;;;16.26;100.00;99439.72;5046575;28;20021;-64
2023/08/30 03:33:45;;;;;;;0.30;0.30;;;;;;;16.29;100.00;99434.97;5029939;28;20044;-64
2023/08/30 03:36:12;;;;;;;0.28;0.28;;;;;;;16.32;100.00;99428.56;5029437;28;20049;-63
2023/08/30 03:38:38;;;;;;;0.30;0.30;;;;;;;16.33;100.00;99435.66;5031466;28;20033;-64
2023/08/30 03:41:03;;;;;;;0.30;0.30;;;;;;;16.35;100.00;99439.09;5050628;28;20086;-64
2023/08/30 03:43:30;;;;;;;0.30;0.30;;;;;;;16.34;100.00;99437.38;5038649;28;20014;-64
2023/08/30 03:45:55;;;;;;;0.20;0.20;;;;;;;16.36;100.00;99435.47;5044334;28;20595;-64
2023/08/30 03:48:20;;;;;;;0.30;0.30;;;;;;;16.38;100.00;99433.53;5050859;28;20029;-63
2023/08/30 03:50:46;;;;;;;0.30;0.30;;;;;;;16.35;100.00;99418.50;5045612;28;20045;-63
2023/08/30 03:53:11;;;;;;;0.20;0.20;;;;;;;16.33;100.00;99417.72;5049276;28;20610;-63
2023/08/30 03:55:37;;;;;;;0.30;0.30;;;;;;;16.33;100.00;99427.59;5048209;28;20542;-64
2023/08/30 03:58:03;;;;;;;0.25;0.25;;;;;;;16.37;100.00;99434.50;5030928;28;20124;-64
2023/08/30 04:00:28;;;;;;;0.30;0.30;;;;;;;16.36;100.00;99425.56;5034115;28;20025;-63
2023/08/30 04:02:54;;;;;;;0.30;0.30;;;;;;;16.38;100.00;99429.03;5045939;28;20055;-64
2023/08/30 04:05:19;;;;;;;0.30;0.30;;;;;;;16.42;100.00;99432.38;5049026;28;20039;-64
2023/08/30 04:07:44;;;;;;;0.30;0.30;;;;;;;16.41;100.00;99433.31;5040569;28;20052;-65
2023/08/30 04:10:10;;;;;;;0.30;0.30;;;;;;;16.42;100.00;99429.69;5050589;28;20025;-64
2023/08/30 04:12:35;;;;;;;0.30;0.30;;;;;;;16.40;100.00;99431.59;5049716;28;20033;-64
2023/08/30 04:15:04;;;;;;;0.30;0.30;;;;;;;16.41;100.00;99434.19;5047023;28;20095;-64
2023/08/30 04:17:29;;;;;;;0.30;0.30;;;;;;;16.35;100.00;99423.00;5030181;28;20048;-64
2023/08/30 04:19:55;;;;;;;0.30;0.30;;;;;;;16.35;100.00;99431.91;5043321;28;20045;-64
2023/08/30 04:22:20;;;;;;;0.30;0.30;;;;;;;16.31;100.00;99426.84;5049397;28;20032;-64
2023/08/30 04:24:46;;;;;;;0.20;0.20;;;;;;;16.30;100.00;99438.53;5048073;28;20025;-64
2023/08/30 04:27:12;;;;;;;0.30;0.30;;;;;;;16.28;100.00;99430.59;5034617;28;20061;-64
2023/08/30 04:29:37;;;;;;;0.30;0.30;;;;;;;16.29;100.00;99440.34;5027626;28;20017;-64
2023/08/30 04:32:03;;;;;;;0.30;0.30;;;;;;;16.28;100.00;99432.41;5038717;28;20033;-64
2023/08/30 04:34:30;;;;;;;0.30;0.30;;;;;;;16.27;100.00;99431.56;5045300;28;20044;-64
2023/08/30 04:36:56;;;;;;;0.30;0.30;;;;;;;16.26;100.00;99434.34;5036466;28;20539;-63
2023/08/30 04:39:21;;;;;;;0.30;0.30;;;;;;;16.22;100.00;99435.50;5044466;28;20055;-64
2023/08/30 04:41:47;;;;;;;0.30;0.30;;;;;;;16.23;100.00;99434.50;5029860;28;20473;-64
2023/08/30 04:44:12;;;;;;;0.30;0.30;;;;;;;16.22;100.00;99439.03;5047480;28;20024;-64
2023/08/30 04:46:37;;;;;;;0.40;0.40;;;;;;;16.20;100.00;99440.97;5037474;28;20469;-63
2023/08/30 04:49:03;;;;;;;0.38;0.38;;;;;;;16.19;100.00;99431.19;5046777;28;20025;-64
2023/08/30 04:51:28;;;;;;;0.30;0.30;;;;;;;16.17;100.00;99440.28;5047732;28;20400;-63
2023/08/30 04:53:54;;;;;;;0.30;0.30;;;;;;;16.21;100.00;99431.94;5048744;28;20024;-64
2023/08/30 04:56:19;;;;;;;0.40;0.40;;;;;;;16.20;100.00;99432.03;5041136;28;20108;-64
2023/08/30 04:58:45;;;;;;;0.30;0.30;;;;;;;16.24;100.00;99442.50;5049048;28;20392;-64
2023/08/30 05:01:13;;;;;;;0.32;0.32;;;;;;;16.18;100.00;99436.63;5047100;28;20610;-63
2023/08/30 05:03:38;;;;;;;0.30;0.30;;;;;;;16.21;100.00;99441.84;5049151;28;20425;-63
2023/08/30 05:06:04;;;;;;;0.30;0.30;;;;;;;16.25;100.00;99444.22;5043973;28;20028;-64
2023/08/30 05:08:29;;;;;;;0.30;0.30;;;;;;;16.27;100.00;99439.63;5047412;28;20497;-64
2023/08/30 05:10:55;;;;;;;0.30;0.30;;;;;;;16.33;100.00;99444.56;5031756;28;20028;-64
2023/08/30 05:13:20;;;;;;;0.32;0.32;;;;;;;16.37;100.00;99442.56;5034909;28;20043;-64
2023/08/30 05:15:45;;;;;;;0.30;0.30;;;;;;;16.37;100.00;99439.88;5045956;28;20036;-64
2023/08/30 05:18:11;;;;;;;0.30;0.30;;;;;;;16.37;100.00;99443.44;5028165;28;20021;-64
2023/08/30 05:20:36;;;;;;;0.30;0.30;;;;;;;16.38;100.00;99442.44;5047966;28;20060;-64
2023/08/30 05:23:02;;;;;;;0.38;0.38;;;;;;;16.39;100.00;99438.78;5048213;28;20134;-63
2023/08/30 05:25:28;;;;;;;0.30;0.30;;;;;;;16.44;100.00;99444.72;5046709;28;20033;-65
2023/08/30 05:27:53;;;;;;;0.30;0.30;;;;;;;16.48;100.00;99437.38;5046293;28;20415;-64
2023/08/30 05:30:19;;;;;;;0.30;0.30;;;;;;;16.47;100.00;99443.72;5034946;28;20543;-64
2023/08/30 05:32:44;;;;;;;0.30;0.30;;;;;;;16.55;100.00;99444.06;5039959;28;20400;-64
2023/08/30 05:35:10;;;;;;;0.30;0.30;;;;;;;16.59;100.00;99445.59;5044585;28;20051;-63
2023/08/30 05:37:35;;;;;;;0.30;0.30;;;;;;;16.64;100.00;99435.38;5035631;28;20092;-64
2023/08/30 05:40:01;;;;;;;0.30;0.30;;;;;;;16.68;100.00;99436.91;5039378;28;20029;-64
2023/08/30 05:42:26;;;;;;;0.40;0.40;;;;;;;16.69;100.00;99439.50;5039337;28;20032;-64
2023/08/30 05:44:53;;;;;;;0.30;0.30;;;;;;;16.71;100.00;99436.72;5036621;28;21515;-63
2023/08/30 05:47:20;;;;;;;0.30;0.30;;;;;;;16.72;100.00;99438.44;5038788;28;20033;-64
2023/08/30 05:49:45;;;;;;;0.30;0.30;;;;;;;16.77;100.00;99436.31;5046290;28;20033;-65
2023/08/30 05:52:11;;;;;;;0.20;0.20;;;;;;;16.78;100.00;99433.53;5047075;28;20044;-64
2023/08/30 05:54:36;;;;;;;0.25;0.25;;;;;;;16.76;100.00;99435.44;5046396;28;20033;-64
2023/08/30 05:57:01;;;;;;;0.30;0.30;;;;;;;16.76;100.00;99429.22;5032872;28;20021;-64
2023/08/30 05:59:27;;;;;;;0.30;0.30;;;;;;;16.77;100.00;99441.69;5039982;28;20029;-64
2023/08/30 06:01:53;;;;;;;0.30;0.30;;;;;;;16.82;100.00;99442.22;5039528;28;20025;-64
2023/08/30 06:04:18;;;;;;;0.30;0.30;;;;;;;16.84;100.00;99437.59;5037080;28;20048;-63
2023/08/30 06:06:44;;;;;;;0.30;0.30;;;;;;;16.86;100.00;99435.69;5042011;28;20028;-64
2023/08/30 06:09:09;;;;;;;0.30;0.30;;;;;;;16.95;100.00;99435.09;5042111;28;20037;-65
2023/08/30 06:11:34;;;;;;;0.30;0.30;;;;;;;17.00;100.00;99432.94;5035926;28;20478;-64
2023/08/30 06:14:00;;;;;;;0.30;0.30;;;;;;;17.03;100.00;99427.34;5033275;28;20036;-63
2023/08/30 06:16:25;;;;;;;0.30;0.30;;;;;;;17.08;100.00;99435.97;5025084;28;20037;-64
2023/08/30 06:18:51;;;;;;;0.30;0.30;;;;;;;17.13;100.00;99429.28;5026807;28;20043;-64
2023/08/30 06:21:16;;;;;;;0.30;0.30;;;;;;;17.18;100.00;99430.81;5082649;28;20065;-64
2023/08/30 06:23:42;;;;;;;0.30;0.30;;;;;;;17.17;100.00;99437.13;5086579;28;20032;-63
2023/08/30 06:26:07;;;;;;;0.30;0.30;;;;;;;17.19;100.00;99437.91;5085938;28;20035;-64
2023/08/30 06:28:33;;;;;;;0.30;0.30;;;;;;;17.26;100.00;99437.41;5084857;28;20035;-64
2023/08/30 06:30:58;;;;;;;0.30;0.30;;;;;;;17.38;100.00;99436.53;5080657;28;20031;-64
2023/08/30 06:33:24;;;;;;;0.30;0.30;;;;;;;17.48;100.00;99440.34;5074804;28;20033;-63
2023/08/30 06:35:53;;;;;;;0.28;0.28;;;;;;;17.48;100.00;99434.13;5086111;28;20016;-63
2023/08/30 06:38:19;;;;;;;0.30;0.30;;;;;;;17.57;100.00;99441.53;5074688;28;20032;-64
2023/08/30 06:40:45;;;;;;;0.30;0.30;;;;;;;17.68;100.00;99430.88;5067559;28;20650;-63
2023/08/30 06:43:11;;;;;;;0.25;0.25;;;;;;;17.88;100.00;99441.06;5086150;28;20043;-64
2023/08/30 06:45:39;;;;;;;0.30;0.30;;;;;;;17.98;100.00;99432.25;5084693;28;20028;-63
2023/08/30 06:48:06;;;;;;;0.20;0.20;;;;;;;18.17;99.48;99432.63;5069758;28;20032;-64
2023/08/30 06:50:31;;;;;;;0.28;0.28;;;;;;;18.23;97.68;99413.34;5085841;28;20098;-64
2023/08/30 06:52:56;;;;;;;0.30;0.30;;;;;;;18.57;96.59;99432.41;5085357;28;20028;-64
2023/08/30 06:55:22;;;;;;;0.30;0.30;;;;;;;18.97;95.95;99441.94;5085815;28;20023;-64
2023/08/30 06:57:49;;;;;;;0.30;0.30;;;;;;;19.25;93.52;99433.47;5067766;28;20028;-64
2023/08/30 07:00:16;;;;;;;0.20;0.20;;;;;;;19.46;91.31;99432.69;5084484;28;20483;-64
2023/08/30 07:02:44;;;;;;;0.20;0.20;;;;;;;19.54;88.95;99437.47;5073865;28;20127;-64
2023/08/30 07:05:10;;;;;;;0.20;0.20;;;;;;;19.62;87.81;99433.19;5080532;28;20036;-64
2023/08/30 07:07:36;;;;;;;0.20;0.20;;;;;;;19.68;87.17;99434.56;5085581;28;20063;-64
2023/08/30 07:10:02;;;;;;;0.20;0.20;;;;;;;19.67;86.89;99436.41;5084111;28;20066;-64
2023/08/30 07:12:28;;;;;;;0.20;0.20;;;;;;;19.88;87.34;99431.16;5084668;28;20059;-63
2023/08/30 07:14:54;;;;;;;0.20;0.20;;;;;;;20.14;86.45;99429.03;5084593;28;20067;-63
2023/08/30 07:17:19;;;;;;;0.20;0.20;;;;;;;20.33;84.04;99432.84;5079450;28;20169;-64
2023/08/30 07:19:45;;;;;;;0.20;0.20;;;;;;;20.32;83.60;99431.16;5085461;28;20038;-64
2023/08/30 07:22:10;;;;;;;0.10;0.10;;;;;;;20.45;82.77;99429.16;5085561;28;20836;-64
2023/08/30 07:24:36;;;;;;;0.17;0.17;;;;;;;20.62;82.26;99420.53;5085088;28;20073;-64
2023/08/30 07:27:02;;;;;;;0.20;0.20;;;;;;;20.83;81.54;99416.03;5085883;28;20095;-63
2023/08/30 07:29:28;;;;;;;0.20;0.20;;;;;;;20.87;79.60;99420.19;5089281;28;20024;-63
2023/08/30 07:31:54;;;;;;;0.20;0.20;;;;;;;21.07;79.05;99418.53;5089738;28;20031;-63
2023/08/30 07:34:20;;;;;;;0.20;0.20;;;;;;;20.96;76.61;99421.25;5088267;28;20468;-64
2023/08/30 07:36:45;;;;;;;0.15;0.15;;;;;;;20.92;76.33;99419.81;5089579;28;20042;-64
2023/08/30 07:39:11;;;;;;;0.20;0.20;;;;;;;20.92;75.91;99426.06;5088529;28;20467;-64
2023/08/30 07:41:36;;;;;;;0.17;0.17;;;;;;;20.94;76.56;99423.22;5089571;28;20051;-63
2023/08/30 07:44:02;;;;;;;0.10;0.10;;;;;;;21.04;75.66;99412.53;5089240;28;20077;-63
2023/08/30 07:46:28;;;;;;;0.20;0.20;;;;;;;21.32;75.80;99411.88;5088013;28;20486;-63
2023/08/30 07:48:54;;;;;;;0.20;0.20;;;;;;;21.40;74.13;99417.50;5088499;28;20028;-62
2023/08/30 07:51:19;;;;;;;0.10;0.10;;;;;;;21.48;73.90;99418.53;5088944;28;20023;-63
2023/08/30 07:53:45;;;;;;;0.20;0.20;;;;;;;21.51;73.80;99417.44;5086742;28;20119;-63
2023/08/30 07:56:10;;;;;;;0.20;0.20;;;;;;;21.29;73.52;99418.41;5088301;28;20028;-63
2023/08/30 07:58:35;;;;;;;0.10;0.10;;;;;;;21.36;74.53;99416.03;5083830;28;20036;-63
2023/08/30 08:01:01;;;;;;;0.10;0.10;;;;;;;21.59;74.62;99407.66;5078404;28;20052;-63
2023/08/30 08:03:26;;;;;;;0.17;0.17;;;;;;;21.94;72.98;99408.13;5079702;28;20020;-62
2023/08/30 08:05:52;;;;;;;0.10;0.10;;;;;;;22.06;71.40;99403.47;5076255;28;20028;-63
2023/08/30 08:08:18;;;;;;;0.10;0.10;;;;;;;22.21;70.55;99406.69;5080951;28;20134;-64
2023/08/30 08:10:43;;;;;;;0.10;0.10;;;;;;;22.43;70.25;99401.91;5085726;28;20048;-63
2023/08/30 08:13:09;;;;;;;0.10;0.10;;;;;;;22.70;70.07;99407.53;5087222;28;20065;-63
2023/08/30 08:15:35;;;;;;;0.10;0.10;;;;;;;22.90;68.49;99414.69;5087526;28;20078;-62
2023/08/30 08:18:01;;;;;;;0.10;0.10;;;;;;;22.99;68.71;99416.56;5080979;28;20028;-63
2023/08/30 08:20:28;;;;;;;0.10;0.10;;;;;;;23.04;67.62;99414.28;5086044;28;20112;-63
2023/08/30 08:22:53;;;;;;;0.20;0.20;;;;;;;23.31;66.97;99422.56;5068949;28;20130;-63
2023/08/30 08:25:20;;;;;;;0.10;0.10;;;;;;;23.24;66.05;99431.41;5079925;28;20452;-63
2023/08/30 08:27:46;;;;;;;0.10;0.10;;;;;;;23.27;65.95;99432.03;5071539;28;20044;-63
2023/08/30 08:30:12;;;;;;;0.10;0.10;;;;;;;23.37;65.48;99430.16;5069991;28;20039;-63
2023/08/30 08:32:38;;;;;;;0.10;0.10;;;;;;;23.50;65.75;99435.28;5075191;28;20019;-63
2023/08/30 08:35:03;;;;;;;0.10;0.10;;;;;;;23.69;66.03;99431.69;5074025;28;20035;-63
2023/08/30 08:37:29;;;;;;;0.10;0.10;;;;;;;23.57;65.93;99432.84;5079703;28;20631;-63
2023/08/30 08:39:54;;;;;;;0.10;0.10;;;;;;;23.66;65.92;99431.97;5088845;28;20016;-62
2023/08/30 08:42:21;;;;;;;0.10;0.10;;;;;;;23.95;65.10;99449.03;5089149;28;20111;-63
2023/08/30 08:44:49;;;;;;;0.10;0.10;;;;;;;24.20;64.80;99448.41;5088056;28;20032;-62
2023/08/30 08:47:17;;;;;;;0.10;0.10;;;;;;;24.43;64.27;99438.88;5089914;28;20476;-62
2023/08/30 08:49:43;;;;;;;0.10;0.10;;;;;;;24.46;63.22;99444.00;5088952;28;20067;-63
2023/08/30 08:52:09;;;;;;;0.10;0.10;;;;;;;24.42;62.07;99448.00;5089597;28;20077;-63
2023/08/30 08:54:38;;;;;;;0.10;0.10;;;;;;;24.55;62.55;99446.66;5088132;28;20436;-63
2023/08/30 08:57:07;;;;;;;0.10;0.10;;;;;;;24.77;61.22;99445.41;5088798;28;20070;-62
2023/08/30 08:59:33;;;;;;;0.10;0.10;;;;;;;24.68;62.33;99443.59;5088519;28;20024;-63
2023/08/30 09:02:00;;;;;;;0.10;0.10;;;;;;;24.71;63.45;99439.72;5084367;28;20109;-63
2023/08/30 09:04:26;;;;;;;0.10;0.10;;;;;;;24.68;63.78;99449.03;5086632;28;20028;-62
2023/08/30 09:06:51;;;;;;;0.10;0.10;;;;;;;24.64;62.97;99445.72;5074043;28;20539;-63
2023/08/30 09:09:17;;;;;;;0.10;0.10;;;;;;;24.40;61.46;99456.31;5068764;28;20028;-64
2023/08/30 09:11:42;;;;;;;0.10;0.10;;;;;;;24.18;64.31;99450.41;5085313;28;20028;-63
2023/08/30 09:14:09;;;;;;;0.10;0.10;;;;;;;23.97;65.49;99452.47;5079957;28;20115;-63
2023/08/30 09:16:34;;;;;;;0.10;0.10;;;;;;;23.91;64.88;99451.19;5069009;28;20099;-62
2023/08/30 09:19:02;;;;;;;0.10;0.10;;;;;;;23.71;65.78;99454.09;5070791;28;20448;-63
2023/08/30 09:21:28;;;;;;;0.10;0.10;;;;;;;23.47;64.98;99454.56;5085694;28;20848;-63
2023/08/30 09:24:12;;;;;;;0.10;0.10;;;;;;;23.45;64.73;99445.72;5076295;28;20028;-63
2023/08/30 09:26:38;;;;;;;;;;;;;;;23.54;64.76;99446.69;5088628;28;20115;-63
2023/08/30 09:29:08;;;;;;;0.10;0.10;;;;;;;23.60;64.37;99443.41;5074241;28;19924;-63
2023/08/30 09:31:38;;;;;;;0.10;0.10;;;;;;;23.72;64.34;99442.25;5073888;28;20067;-63
2023/08/30 09:34:06;;;;;;;0.10;0.10;;;;;;;23.77;63.73;99437.22;5075364;28;20624;-63
2023/08/30 09:36:36;;;;;;;0.10;0.10;;;;;;;23.71;63.30;99445.94;5069101;28;20385;-65
2023/08/30 09:39:12;;;;;;;0.10;0.10;;;;;;;23.82;63.35;99434.94;5069196;28;20586;-68
2023/08/30 09:41:41;;;;;;;0.10;0.10;;;;;;;24.17;63.48;99444.13;5076545;28;20020;-68
2023/08/30 09:44:10;;;;;;;0.10;0.10;;;;;;;24.33;61.65;99444.31;5083938;28;20081;-68
2023/08/30 09:46:43;;;;;;;0.10;0.10;;;;;;;24.43;60.89;99436.97;5084675;28;20036;-68
2023/08/30 09:49:09;;;;;;;0.10;0.10;;;;;;;24.42;60.85;99432.56;5072494;28;20082;-68
2023/08/30 09:51:37;;;;;;;0.10;0.10;;;;;;;24.80;61.18;99423.34;5066157;28;20021;-68
2023/08/30 09:54:04;;;;;;;0.10;0.10;;;;;;;25.39;59.02;99420.88;5084577;28;20032;-68
2023/08/30 09:56:32;;;;;;;0.10;0.10;;;;;;;25.91;57.81;99422.59;5082745;28;20023;-68
2023/08/30 09:58:59;;;;;;;0.10;0.10;;;;;;;26.14;56.03;99424.81;5071713;28;20578;-68
2023/08/30 10:01:28;;;;;;;0.10;0.10;;;;;;;26.41;52.22;99420.00;5066790;28;20040;-68
2023/08/30 10:03:56;;;;;;;0.10;0.10;;;;;;;26.21;52.23;99414.97;5084316;28;20026;-67
2023/08/30 10:06:24;;;;;;;0.10;0.10;;;;;;;26.66;55.50;99415.50;5086645;28;20022;-68
2023/08/30 10:08:52;;;;;;;0.10;0.10;;;;;;;26.84;52.45;99413.50;5087583;28;20563;-68
2023/08/30 10:11:18;;;;;;;0.10;0.10;;;;;;;26.94;52.24;99414.22;5087430;28;20060;-68
2023/08/30 10:13:45;;;;;;;0.10;0.10;;;;;;;27.01;49.26;99409.81;5087758;28;20347;-70
2023/08/30 10:16:20;;;;;;;0.10;0.10;;;;;;;26.89;48.49;99411.13;5086397;28;20730;-70
2023/08/30 10:18:50;;;;;;;0.10;0.10;;;;;;;27.14;51.11;99399.22;5088127;28;20035;-69
2023/08/30 10:21:18;;;;;;;0.10;0.10;;;;;;;27.55;49.56;99409.16;5088303;28;20111;-69
2023/08/30 10:23:46;;;;;;;0.10;0.10;;;;;;;27.74;48.67;99400.59;5078857;28;20021;-68
2023/08/30 10:26:12;;;;;;;0.05;0.05;;;;;;;27.96;49.29;99402.63;5081362;28;20035;-69
2023/08/30 10:28:41;;;;;;;0.10;0.10;;;;;;;28.28;49.92;99397.06;5088797;28;20479;-69
2023/08/30 10:31:08;;;;;;;0.10;0.10;;;;;;;28.64;46.76;99394.72;5069054;28;20032;-69
2023/08/30 10:33:47;;;;;;;0.00;0.00;;;;;;;28.64;49.98;99391.97;5088254;28;20085;-69
2023/08/30 10:36:12;;;;;;;0.10;0.10;;;;;;;28.79;46.97;99400.25;5087682;28;20039;-70
2023/08/30 10:38:40;;;;;;;0.10;0.10;;;;;;;28.74;44.82;99391.75;5087772;28;20020;-70
2023/08/30 10:41:09;;;;;;;0.00;0.00;;;;;;;29.06;44.58;99386.06;5062070;28;20396;-68
2023/08/30 10:43:36;;;;;;;0.00;0.00;;;;;;;29.23;44.76;99384.91;5087071;28;20031;-69
2023/08/30 10:46:11;;;;;;;0.00;0.00;;;;;;;29.53;42.61;99386.72;5085289;28;20084;-70
2023/08/30 10:48:38;;;;;;;0.00;0.00;;;;;;;29.62;43.85;99371.91;5086303;28;20036;-70
2023/08/30 10:51:07;;;;;;;0.00;0.00;;;;;;;29.63;42.10;99384.56;5084338;28;20032;-70
2023/08/30 10:53:32;;;;;;;0.00;0.00;;;;;;;29.63;42.45;99368.13;5087464;28;20408;-70
2023/08/30 10:56:10;;;;;;;0.00;0.00;;;;;;;29.17;43.43;99369.22;5086602;28;20031;-69
2023/08/30 10:58:42;;;;;;;0.03;0.03;;;;;;;29.01;43.82;99361.94;5068205;28;20488;-70
2023/08/30 11:01:10;;;;;;;0.00;0.00;;;;;;;28.61;44.36;99361.38;5087750;28;20028;-70
2023/08/30 11:03:36;;;;;;;0.00;0.00;;;;;;;28.66;44.79;99348.00;5091066;28;20119;-69
2023/08/30 11:06:02;;;;;;;0.03;0.03;;;;;;;29.05;44.85;99360.56;5066929;28;20108;-70
2023/08/30 11:08:29;;;;;;;0.00;0.00;;;;;;;29.13;45.73;99351.44;5085488;28;20146;-70
2023/08/30 11:11:05;;;;;;;0.00;0.00;;;;;;;29.20;43.98;99355.16;5082542;28;20123;-70
2023/08/30 11:13:30;;;;;;;0.00;0.00;;;;;;;29.28;43.00;99357.81;5087754;28;20101;-69
2023/08/30 11:16:04;;;;;;;0.00;0.00;;;;;;;29.09;44.67;99341.91;5088694;28;20421;-70
2023/08/30 11:18:42;;;;;;;0.00;0.00;;;;;;;29.61;45.50;99349.13;5058922;28;20069;-70
2023/08/30 11:21:09;;;;;;;0.00;0.00;;;;;;;29.75;41.19;99338.38;5083037;28;20024;-69
2023/08/30 11:23:34;;;;;;;0.00;0.00;;;;;;;29.71;43.29;99337.91;5072575;28;20503;-70
2023/08/30 11:26:02;;;;;;;0.00;0.00;;;;;;;30.10;41.67;99332.97;5078866;28;20021;-70
2023/08/30 11:28:28;;;;;;;0.00;0.00;;;;;;;29.93;40.95;99334.25;5071445;28;20059;-70